createdAt,value
2023-02-25T00:01:26.099Z,109.32
2023-02-25T00:03:54.742Z,107.57
2023-02-25T00:06:23.091Z,103.90
2023-02-25T00:08:51.857Z,109.18
2023-02-25T00:11:20.252Z,103.88
2023-02-25T00:13:48.190Z,107.93
2023-02-25T00:16:16.571Z,102.28
2023-02-25T00:18:46.790Z,104.47
2023-02-25T00:21:16.471Z,103.45
2023-02-25T00:23:45.563Z,105.05
2023-02-25T00:26:13.411Z,105.60
2023-02-25T00:28:41.757Z,97.63
2023-02-25T00:31:12.042Z,108.00
2023-02-25T00:33:42.215Z,106.90
2023-02-25T00:36:11.217Z,103.15
2023-02-25T00:38:39.231Z,104.55
2023-02-25T00:41:11.967Z,97.97
2023-02-25T00:43:40.514Z,102.10
2023-02-25T00:46:10.122Z,100.43
2023-02-25T00:48:38.480Z,106.88
2023-02-25T00:51:07.419Z,115.75
2023-02-25T00:53:35.284Z,123.50
2023-02-25T00:56:03.280Z,137.75
2023-02-25T00:58:31.109Z,138.57
2023-02-25T01:00:59.132Z,147.90
2023-02-25T01:03:26.941Z,155.65
2023-02-25T01:05:55.048Z,152.05
2023-02-25T01:08:22.878Z,153.88
2023-02-25T01:10:54.777Z,155.05
2023-02-25T01:13:22.617Z,150.88
2023-02-25T01:15:50.728Z,155.63
2023-02-25T01:18:20.671Z,153.30
2023-02-25T01:20:48.508Z,162.00
2023-02-25T01:23:16.397Z,159.43
2023-02-25T01:25:44.259Z,151.75
2023-02-25T01:28:12.152Z,145.65
2023-02-25T01:30:39.973Z,153.35
2023-02-25T01:33:07.948Z,154.10
2023-02-25T01:35:37.056Z,160.23
2023-02-25T01:38:04.987Z,161.57
2023-02-25T01:40:32.899Z,156.93
2023-02-25T01:43:00.870Z,156.05
2023-02-25T01:45:30.452Z,161.48
2023-02-25T01:48:03.545Z,152.88
2023-02-25T01:50:37.311Z,157.25
2023-02-25T01:53:05.713Z,156.93
2023-02-25T01:55:34.503Z,155.35
2023-02-25T01:58:02.687Z,164.05
2023-02-25T02:00:32.013Z,162.45
2023-02-25T02:03:00.436Z,161.18
2023-02-25T02:05:38.574Z,156.75
2023-02-25T02:08:06.577Z,165.85
2023-02-25T02:10:34.528Z,150.77
2023-02-25T02:13:04.752Z,153.55
2023-02-25T02:15:36.462Z,154.73
2023-02-25T02:18:04.716Z,158.02
2023-02-25T02:20:32.779Z,144.20
2023-02-25T02:23:22.250Z,154.25
2023-02-25T02:25:54.333Z,150.77
2023-02-25T02:28:34.523Z,146.93
2023-02-25T02:31:21.057Z,142.45
2023-02-25T02:33:55.351Z,143.88
2023-02-25T02:36:52.539Z,141.25
2023-02-25T02:39:23.339Z,139.30
2023-02-25T02:42:06.706Z,131.65
2023-02-25T02:45:07.206Z,105.47
2023-02-25T02:47:35.244Z,129.57
2023-02-25T02:50:10.305Z,141.10
2023-02-25T02:52:44.048Z,138.35
2023-02-25T02:55:22.637Z,128.80
2023-02-25T02:57:55.087Z,119.18
2023-02-25T03:00:26.003Z,113.97
2023-02-25T03:02:58.757Z,105.80
2023-02-25T03:05:28.826Z,103.18
2023-02-25T03:08:12.211Z,108.85
2023-02-25T03:10:40.322Z,95.95
2023-02-25T03:13:08.326Z,89.18
2023-02-25T03:15:37.637Z,88.82
2023-02-25T03:18:25.882Z,89.38
2023-02-25T03:20:55.313Z,92.88
2023-02-25T03:23:24.737Z,80.38
2023-02-25T03:25:54.503Z,84.35
2023-02-25T03:28:25.832Z,80.68
2023-02-25T03:31:06.468Z,81.82
2023-02-25T03:33:34.445Z,80.93
2023-02-25T03:36:05.925Z,77.78
2023-02-25T03:38:34.066Z,78.72
2023-02-25T03:41:05.919Z,87.78
2023-02-25T03:43:39.445Z,82.05
2023-02-25T03:46:07.846Z,76.38
2023-02-25T03:48:36.390Z,82.47
2023-02-25T03:51:07.676Z,82.88
2023-02-25T03:53:38.773Z,79.18
2023-02-25T03:56:12.752Z,85.82
2023-02-25T03:58:44.319Z,80.35
2023-02-25T04:01:21.706Z,78.70
2023-02-25T04:03:49.833Z,79.18
2023-02-25T04:06:23.153Z,74.35
2023-02-25T04:08:52.110Z,83.93
2023-02-25T04:11:20.302Z,78.63
2023-02-25T04:13:48.993Z,80.13
2023-02-25T04:16:17.388Z,76.07
2023-02-25T04:18:46.277Z,76.65
2023-02-25T04:21:37.843Z,85.18
2023-02-25T04:24:06.958Z,75.43
2023-02-25T04:26:35.721Z,70.97
2023-02-25T04:29:04.298Z,81.40
2023-02-25T04:31:32.578Z,82.60
2023-02-25T04:34:00.537Z,80.63
2023-02-25T04:36:35.686Z,89.43
2023-02-25T04:39:04.941Z,88.45
2023-02-25T04:41:34.364Z,85.25
2023-02-25T04:44:04.130Z,86.05
2023-02-25T04:46:33.126Z,88.63
2023-02-25T04:49:01.067Z,77.75
2023-02-25T04:51:29.177Z,81.18
2023-02-25T04:53:57.066Z,77.63
2023-02-25T04:56:25.166Z,78.15
2023-02-25T04:58:54.157Z,79.35
2023-02-25T05:01:22.106Z,81.75
2023-02-25T05:03:50.357Z,75.38
2023-02-25T05:06:18.182Z,78.43
2023-02-25T05:08:46.692Z,72.47
2023-02-25T05:11:14.464Z,80.10
2023-02-25T05:13:42.570Z,78.63
2023-02-25T05:16:12.564Z,79.63
2023-02-25T05:18:41.394Z,74.15
2023-02-25T05:21:10.255Z,79.10
2023-02-25T05:23:40.671Z,76.57
2023-02-25T05:26:08.791Z,73.05
2023-02-25T05:28:37.707Z,72.25
2023-02-25T05:31:06.214Z,70.97
2023-02-25T05:33:34.402Z,77.82
2023-02-25T05:36:02.193Z,74.07
2023-02-25T05:38:30.173Z,77.30
2023-02-25T05:41:00.213Z,75.35
2023-02-25T05:43:28.138Z,80.30
2023-02-25T05:46:00.133Z,77.07
2023-02-25T05:48:28.153Z,83.90
2023-02-25T05:51:04.158Z,79.88
2023-02-25T05:53:32.177Z,74.65
2023-02-25T05:56:00.190Z,77.93
2023-02-25T05:58:28.092Z,84.55
2023-02-25T06:00:55.939Z,75.60
2023-02-25T06:03:24.005Z,72.78
2023-02-25T06:05:53.269Z,89.15
2023-02-25T06:08:21.314Z,78.85
2023-02-25T06:10:49.216Z,82.85
2023-02-25T06:13:18.278Z,74.65
2023-02-25T06:15:46.035Z,78.15
2023-02-25T06:18:13.901Z,74.50
2023-02-25T06:20:41.660Z,73.82
2023-02-25T06:23:09.696Z,136.13
2023-02-25T06:25:37.544Z,86.30
2023-02-25T06:28:05.514Z,72.68
2023-02-25T06:30:33.429Z,68.65
2023-02-25T06:33:01.418Z,75.20
2023-02-25T06:35:29.299Z,70.63
2023-02-25T06:37:57.879Z,63.92
2023-02-25T06:40:25.791Z,71.75
2023-02-25T06:43:11.822Z,73.50
2023-02-25T06:45:39.927Z,66.60
2023-02-25T06:48:07.828Z,83.95
2023-02-25T06:50:40.836Z,81.57
2023-02-25T06:53:09.089Z,68.30
2023-02-25T06:55:39.395Z,60.55
2023-02-25T06:58:07.618Z,62.35
2023-02-25T07:00:37.821Z,59.08
2023-02-25T07:03:05.802Z,58.72
2023-02-25T07:05:33.934Z,57.50
2023-02-25T07:08:01.947Z,57.85
2023-02-25T07:10:29.887Z,59.50
2023-02-25T07:12:58.172Z,59.30
2023-02-25T07:15:25.962Z,56.50
2023-02-25T07:17:53.866Z,57.63
2023-02-25T07:20:21.704Z,59.45
2023-02-25T07:22:49.672Z,58.22
2023-02-25T07:25:17.624Z,57.65
2023-02-25T07:27:46.234Z,63.40
2023-02-25T07:30:14.887Z,56.25
2023-02-25T07:32:43.167Z,61.00
2023-02-25T07:35:11.168Z,57.72
2023-02-25T07:37:39.326Z,51.28
2023-02-25T07:40:14.461Z,56.10
2023-02-25T07:42:42.583Z,54.63
2023-02-25T07:45:12.532Z,53.35
2023-02-25T07:47:40.580Z,53.13
2023-02-25T07:50:12.794Z,50.10
2023-02-25T07:52:40.912Z,50.67
2023-02-25T07:55:08.970Z,46.63
2023-02-25T07:57:36.924Z,57.03
2023-02-25T08:00:10.339Z,56.78
2023-02-25T08:02:41.097Z,54.80
2023-02-25T08:05:09.299Z,55.95
2023-02-25T08:07:37.130Z,56.08
2023-02-25T08:10:05.501Z,54.65
2023-02-25T08:12:33.601Z,55.10
2023-02-25T08:15:02.185Z,56.97
2023-02-25T08:17:32.613Z,50.03
2023-02-25T08:20:00.792Z,52.30
2023-02-25T08:22:28.654Z,56.33
2023-02-25T08:24:56.899Z,56.60
2023-02-25T08:27:24.784Z,49.45
2023-02-25T08:29:52.724Z,52.97
2023-02-25T08:32:20.702Z,50.40
2023-02-25T08:34:50.998Z,49.42
2023-02-25T08:37:22.770Z,49.95
2023-02-25T08:39:50.942Z,51.15
2023-02-25T08:42:19.133Z,51.42
2023-02-25T08:44:47.098Z,51.92
2023-02-25T08:47:15.133Z,51.22
2023-02-25T08:49:43.494Z,60.28
2023-02-25T08:52:12.166Z,51.28
2023-02-25T08:54:40.373Z,57.47
2023-02-25T08:57:08.384Z,42.53
2023-02-25T08:59:36.308Z,45.13
2023-02-25T09:02:06.381Z,52.75
2023-02-25T09:04:52.972Z,46.22
2023-02-25T09:07:26.187Z,42.90
2023-02-25T09:09:54.116Z,47.17
2023-02-25T09:12:24.722Z,50.78
2023-02-25T09:14:53.025Z,47.10
2023-02-25T09:17:21.126Z,46.53
2023-02-25T09:19:49.271Z,49.47
2023-02-25T09:22:17.141Z,48.53
2023-02-25T09:24:44.904Z,47.22
2023-02-25T09:27:13.886Z,47.88
2023-02-25T09:29:41.858Z,56.40
2023-02-25T09:32:09.875Z,44.15
2023-02-25T09:34:38.642Z,46.97
2023-02-25T09:37:06.683Z,44.35
2023-02-25T09:39:34.656Z,40.00
2023-02-25T09:42:05.583Z,45.55
2023-02-25T09:44:37.334Z,37.85
2023-02-25T09:47:05.235Z,43.45
2023-02-25T09:49:37.267Z,43.90
2023-02-25T09:52:14.379Z,46.80
2023-02-25T09:54:45.122Z,45.92
2023-02-25T09:57:19.191Z,44.45
2023-02-25T09:59:47.501Z,48.53
2023-02-25T10:02:54.214Z,48.55
2023-02-25T10:05:23.418Z,50.95
2023-02-25T10:07:59.111Z,44.95
2023-02-25T10:10:30.544Z,43.40
2023-02-25T10:13:07.898Z,49.80
2023-02-25T10:15:56.639Z,46.15
2023-02-25T10:19:01.603Z,45.03
2023-02-25T10:21:31.460Z,43.47
2023-02-25T10:24:20.476Z,42.05
2023-02-25T10:26:50.918Z,44.40
2023-02-25T10:29:46.516Z,43.25
2023-02-25T10:32:19.824Z,45.45
2023-02-25T10:34:48.016Z,44.25
2023-02-25T10:37:20.379Z,41.95
2023-02-25T10:39:48.759Z,37.63
2023-02-25T10:42:17.852Z,43.70
2023-02-25T10:44:46.060Z,42.53
2023-02-25T10:47:16.173Z,38.03
2023-02-25T10:50:03.992Z,40.92
2023-02-25T10:52:36.648Z,39.63
2023-02-25T10:55:04.878Z,40.47
2023-02-25T10:57:42.918Z,39.83
2023-02-25T11:00:24.703Z,39.17
2023-02-25T11:02:53.043Z,39.08
2023-02-25T11:05:50.532Z,38.33
2023-02-25T11:08:33.788Z,40.95
2023-02-25T11:11:06.714Z,44.42
2023-02-25T11:13:37.330Z,72.68
2023-02-25T11:16:07.851Z,43.05
2023-02-25T11:18:36.575Z,39.45
2023-02-25T11:21:14.576Z,40.67
2023-02-25T11:23:45.609Z,35.65
2023-02-25T11:26:18.583Z,39.45
2023-02-25T11:28:50.217Z,40.58
2023-02-25T11:31:19.128Z,34.92
2023-02-25T11:33:51.321Z,29.98
2023-02-25T11:36:30.007Z,29.92
2023-02-25T11:39:16.383Z,34.78
2023-02-25T11:44:41.021Z,27.00
2023-02-25T11:47:20.587Z,24.67
2023-02-25T11:49:54.493Z,26.25
2023-02-25T11:52:26.603Z,26.08
2023-02-25T11:54:57.684Z,29.80
2023-02-25T11:57:25.508Z,24.90
2023-02-25T11:59:59.078Z,24.10
2023-02-25T12:02:40.300Z,21.75
2023-02-25T12:05:20.403Z,20.27
2023-02-25T12:08:13.735Z,20.55
2023-02-25T12:10:45.161Z,34.60
2023-02-25T12:13:22.175Z,26.05
2023-02-25T12:16:02.451Z,21.95
2023-02-25T12:18:46.027Z,24.92
2023-02-25T12:21:26.428Z,21.42
2023-02-25T12:24:04.363Z,23.35
2023-02-25T12:26:38.227Z,20.20
2023-02-25T12:29:06.240Z,24.70
2023-02-25T12:31:52.911Z,20.25
2023-02-25T12:34:33.343Z,36.97
2023-02-25T12:37:10.456Z,20.52
2023-02-25T12:39:57.917Z,25.70
2023-02-25T12:42:32.311Z,22.60
2023-02-25T12:45:08.407Z,21.80
2023-02-25T12:48:00.743Z,16.90
2023-02-25T12:50:45.103Z,27.08
2023-02-25T12:53:42.372Z,24.42
2023-02-25T12:56:22.676Z,24.60
2023-02-25T12:59:20.096Z,21.85
2023-02-25T13:02:08.711Z,24.20
2023-02-25T13:04:48.076Z,24.45
2023-02-25T13:07:18.995Z,24.67
2023-02-25T13:09:53.246Z,20.55
2023-02-25T13:12:50.111Z,22.55
2023-02-25T13:15:20.936Z,20.20
2023-02-25T13:18:11.341Z,23.10
2023-02-25T13:20:47.588Z,22.33
2023-02-25T13:23:21.179Z,29.00
2023-02-25T13:26:07.884Z,29.83
2023-02-25T13:28:54.611Z,27.75
2023-02-25T13:31:30.347Z,26.85
2023-02-25T13:34:01.498Z,22.40
2023-02-25T13:36:42.525Z,25.33
2023-02-25T13:39:29.620Z,25.05
2023-02-25T13:42:08.006Z,29.80
2023-02-25T13:45:43.791Z,22.95
2023-02-25T13:48:35.296Z,26.45
2023-02-25T13:51:36.309Z,29.63
2023-02-25T13:54:19.997Z,26.77
2023-02-25T13:57:06.586Z,25.73
2023-02-25T13:59:34.939Z,24.88
2023-02-25T14:02:21.718Z,25.05
2023-02-25T14:05:13.386Z,23.58
2023-02-25T14:07:41.246Z,27.25
2023-02-25T14:10:15.281Z,28.48
2023-02-25T14:12:49.559Z,31.27
2023-02-25T14:15:24.508Z,28.17
2023-02-25T14:18:08.115Z,27.95
2023-02-25T14:20:52.442Z,23.70
2023-02-25T14:23:20.608Z,27.52
2023-02-25T14:25:48.522Z,25.30
2023-02-25T14:28:19.581Z,25.38
2023-02-25T14:30:59.872Z,26.70
2023-02-25T14:33:40.125Z,21.35
2023-02-25T14:36:16.569Z,28.52
2023-02-25T14:39:07.971Z,27.90
2023-02-25T14:41:36.911Z,27.67
2023-02-25T14:44:07.718Z,31.02
2023-02-25T14:46:45.427Z,22.05
2023-02-25T14:49:36.146Z,29.42
2023-02-25T14:52:25.525Z,25.15
2023-02-25T14:54:53.520Z,24.35
2023-02-25T14:57:34.006Z,28.88
2023-02-25T15:00:25.436Z,32.92
2023-02-25T15:02:53.279Z,38.03
2023-02-25T15:05:35.112Z,27.45
2023-02-25T15:08:26.749Z,27.77
2023-02-25T15:11:13.403Z,30.40
2023-02-25T15:13:47.279Z,35.65
2023-02-25T15:16:27.573Z,36.75
2023-02-25T15:19:08.062Z,32.38
2023-02-25T15:21:46.684Z,31.73
2023-02-25T15:24:27.788Z,27.67
2023-02-25T15:26:57.472Z,22.25
2023-02-25T15:29:34.656Z,26.67
2023-02-25T15:32:11.289Z,28.95
2023-02-25T15:34:40.159Z,33.53
2023-02-25T15:37:25.896Z,27.25
2023-02-25T15:39:56.560Z,30.02
2023-02-25T15:42:43.478Z,30.05
2023-02-25T15:45:30.681Z,28.17
2023-02-25T15:48:07.851Z,30.27
2023-02-25T15:50:58.209Z,30.50
2023-02-25T15:53:26.253Z,30.80
2023-02-25T15:56:06.668Z,29.90
2023-02-25T15:58:34.589Z,29.52
2023-02-25T16:01:08.548Z,44.15
2023-02-25T16:03:36.443Z,39.97
2023-02-25T16:06:21.952Z,38.72
2023-02-25T16:09:05.469Z,42.97
2023-02-25T16:14:13.872Z,29.30
2023-02-25T16:16:45.297Z,30.85
2023-02-25T16:19:16.530Z,31.83
2023-02-25T16:21:47.271Z,34.53
2023-02-25T16:24:20.719Z,36.20
2023-02-25T16:26:48.723Z,40.65
2023-02-25T16:29:37.035Z,36.97
2023-02-25T16:32:08.439Z,35.28
2023-02-25T16:34:53.492Z,30.85
2023-02-25T16:37:24.411Z,36.17
2023-02-25T16:39:58.494Z,40.03
2023-02-25T16:42:26.740Z,36.60
2023-02-25T16:45:00.054Z,42.17
2023-02-25T16:47:29.354Z,39.90
2023-02-25T16:50:01.215Z,39.67
2023-02-25T16:52:38.560Z,44.65
2023-02-25T16:55:12.425Z,36.10
2023-02-25T16:57:40.573Z,38.60
2023-02-25T17:00:19.365Z,47.00
2023-02-25T17:02:48.668Z,55.05
2023-02-25T17:05:43.035Z,50.65
2023-02-25T17:08:18.106Z,42.17
2023-02-25T17:10:58.561Z,44.15
2023-02-25T17:13:38.149Z,38.30
2023-02-25T17:16:06.812Z,59.67
2023-02-25T17:19:00.757Z,86.80
2023-02-25T17:21:34.072Z,75.50
2023-02-25T17:24:03.143Z,75.07
2023-02-25T17:26:31.562Z,76.97
2023-02-25T17:29:00.728Z,87.95
2023-02-25T17:31:29.980Z,73.47
2023-02-25T17:34:02.789Z,81.28
2023-02-25T17:36:33.014Z,86.82
2023-02-25T17:39:03.191Z,77.72
2023-02-25T17:41:31.201Z,84.13
2023-02-25T17:43:59.168Z,84.25
2023-02-25T17:46:39.418Z,76.20
2023-02-25T17:49:21.746Z,84.20
2023-02-25T17:52:09.342Z,82.32
2023-02-25T17:54:38.962Z,88.88
2023-02-25T17:57:29.245Z,139.13
2023-02-25T18:00:14.416Z,86.57
2023-02-25T18:03:34.712Z,82.97
2023-02-25T18:06:15.010Z,84.05
2023-02-25T18:12:48.295Z,84.72
2023-02-25T18:15:20.695Z,81.97
2023-02-25T18:17:49.699Z,92.33
2023-02-25T18:20:31.822Z,88.88
2023-02-25T18:23:02.744Z,79.70
2023-02-25T18:25:37.003Z,81.35
2023-02-25T18:28:07.053Z,87.03
2023-02-25T18:30:35.820Z,86.50
2023-02-25T18:33:04.617Z,88.50
2023-02-25T18:35:34.753Z,84.07
2023-02-25T18:38:03.367Z,89.15
2023-02-25T18:40:31.695Z,85.32
2023-02-25T18:43:00.171Z,195.50
2023-02-25T18:45:29.010Z,102.72
2023-02-25T18:47:57.243Z,89.28
2023-02-25T18:50:25.954Z,84.20
2023-02-25T18:52:55.670Z,82.60
2023-02-25T18:55:28.389Z,85.43
2023-02-25T18:58:07.263Z,87.22
2023-02-25T19:00:35.908Z,81.85
2023-02-25T19:03:06.110Z,80.05
2023-02-25T19:05:34.802Z,79.28
2023-02-25T19:08:02.846Z,89.88
2023-02-25T19:10:34.578Z,82.70
2023-02-25T19:13:05.487Z,83.82
2023-02-25T19:15:34.864Z,85.38
2023-02-25T19:18:03.186Z,101.82
2023-02-25T19:20:31.312Z,96.25
2023-02-25T19:22:59.180Z,102.68
2023-02-25T19:25:32.082Z,110.63
2023-02-25T19:28:00.118Z,82.90
2023-02-25T19:30:30.951Z,87.10
2023-02-25T19:33:04.633Z,90.82
2023-02-25T19:35:33.956Z,86.55
2023-02-25T19:38:02.487Z,131.30
2023-02-25T19:40:30.539Z,96.85
2023-02-25T19:42:59.252Z,96.50
2023-02-25T19:45:27.692Z,81.30
2023-02-25T19:47:56.693Z,88.30
2023-02-25T19:50:25.576Z,81.40
2023-02-25T19:52:54.519Z,84.60
2023-02-25T19:55:23.039Z,86.95
2023-02-25T19:57:51.080Z,84.10
2023-02-25T20:00:22.782Z,78.30
2023-02-25T20:02:53.108Z,86.00
2023-02-25T20:05:22.819Z,82.00
2023-02-25T20:07:51.209Z,84.28
2023-02-25T20:10:20.000Z,86.30
2023-02-25T20:12:48.787Z,78.28
2023-02-25T20:15:17.732Z,74.95
2023-02-25T20:17:49.631Z,84.75
2023-02-25T20:20:17.818Z,76.35
2023-02-25T20:22:45.831Z,75.82
2023-02-25T20:25:15.239Z,77.68
2023-02-25T20:27:44.636Z,82.13
2023-02-25T20:30:16.620Z,81.07
2023-02-25T20:32:45.264Z,78.57
2023-02-25T20:35:18.344Z,77.75
2023-02-25T20:37:50.956Z,85.45
2023-02-25T20:40:19.039Z,81.25
2023-02-25T20:42:47.080Z,73.38
2023-02-25T20:45:15.872Z,76.97
2023-02-25T20:47:44.027Z,72.40
2023-02-25T20:50:15.747Z,79.20
2023-02-25T20:52:43.841Z,75.65
2023-02-25T20:55:11.792Z,82.07
2023-02-25T20:57:39.854Z,79.57
2023-02-25T21:00:09.239Z,82.78
2023-02-25T21:02:37.268Z,89.43
2023-02-25T21:05:05.366Z,75.97
2023-02-25T21:07:34.435Z,69.72
2023-02-25T21:10:02.480Z,81.50
2023-02-25T21:12:30.586Z,81.72
2023-02-25T21:14:58.504Z,80.63
2023-02-25T21:17:26.519Z,82.15
2023-02-25T21:20:02.029Z,79.13
2023-02-25T21:22:30.154Z,76.05
2023-02-25T21:24:59.144Z,78.10
2023-02-25T21:27:28.355Z,75.60
2023-02-25T21:29:56.824Z,80.80
2023-02-25T21:32:24.698Z,81.60
2023-02-25T21:34:52.792Z,75.28
2023-02-25T21:37:20.695Z,79.80
2023-02-25T21:40:06.119Z,77.70
2023-02-25T21:42:52.366Z,81.30
2023-02-25T21:45:41.670Z,79.00
2023-02-25T21:48:09.494Z,83.32
2023-02-25T21:50:37.478Z,81.65
2023-02-25T21:53:05.372Z,77.88
2023-02-25T21:55:46.341Z,78.40
2023-02-25T21:58:18.784Z,78.82
2023-02-25T22:00:46.765Z,75.82
2023-02-25T22:03:14.662Z,80.05
2023-02-25T22:05:47.011Z,91.53
2023-02-25T22:08:15.204Z,88.80
2023-02-25T22:10:43.371Z,84.30
2023-02-25T22:13:11.178Z,90.25
2023-02-25T22:15:39.265Z,85.30
2023-02-25T22:18:07.075Z,83.70
2023-02-25T22:20:35.061Z,91.00
2023-02-25T22:23:03.159Z,80.57
2023-02-25T22:25:30.973Z,86.95
2023-02-25T22:27:59.788Z,79.72
2023-02-25T22:30:27.617Z,85.38
2023-02-25T22:32:59.428Z,87.00
2023-02-25T22:35:27.664Z,86.45
2023-02-25T22:37:55.619Z,86.63
2023-02-25T22:40:23.397Z,77.43
2023-02-25T22:42:51.507Z,86.95
2023-02-25T22:45:19.436Z,83.10
2023-02-25T22:47:47.330Z,83.65
2023-02-25T22:50:15.162Z,90.47
2023-02-25T22:52:44.337Z,87.63
2023-02-25T22:55:14.091Z,82.05
2023-02-25T22:57:41.888Z,89.63
2023-02-25T23:00:16.943Z,90.38
2023-02-25T23:02:44.936Z,82.57
2023-02-25T23:05:13.264Z,82.60
2023-02-25T23:07:42.444Z,90.60
2023-02-25T23:10:10.775Z,88.43
2023-02-25T23:12:38.545Z,85.00
2023-02-25T23:15:06.817Z,85.00
2023-02-25T23:17:34.598Z,81.15
2023-02-25T23:20:04.500Z,87.07
2023-02-25T23:22:33.719Z,86.63
2023-02-25T23:25:03.912Z,86.65
2023-02-25T23:27:31.733Z,85.28
2023-02-25T23:29:59.944Z,82.65
2023-02-25T23:32:27.882Z,87.35
2023-02-25T23:34:56.350Z,80.28
2023-02-25T23:37:24.215Z,93.10
2023-02-25T23:39:52.174Z,81.95
2023-02-25T23:42:20.078Z,84.65
2023-02-25T23:44:48.104Z,88.43
2023-02-25T23:47:15.980Z,88.15
2023-02-25T23:49:44.094Z,86.47
2023-02-25T23:52:11.898Z,84.03
2023-02-25T23:54:39.709Z,85.55
2023-02-25T23:57:07.699Z,89.22
2023-02-25T23:59:35.622Z,93.10
